createdAt,value
2019-04-27T00:01:30.087Z,62.60
2019-04-27T00:04:35.962Z,62.93
2019-04-27T00:07:27.081Z,63.60
2019-04-27T00:10:05.698Z,63.88
2019-04-27T00:12:37.965Z,64.42
2019-04-27T00:15:13.084Z,64.35
2019-04-27T00:18:03.749Z,64.70
2019-04-27T00:20:54.579Z,64.79
2019-04-27T00:23:26.909Z,65.03
2019-04-27T00:25:59.014Z,65.05
2019-04-27T00:28:33.209Z,65.18
2019-04-27T00:31:05.218Z,65.07
2019-04-27T00:33:37.088Z,65.22
2019-04-27T00:36:18.767Z,65.15
2019-04-27T00:38:59.418Z,65.17
2019-04-27T00:41:33.971Z,65.36
2019-04-27T00:44:06.273Z,65.30
2019-04-27T00:46:38.159Z,65.11
2019-04-27T00:49:10.033Z,64.96
2019-04-27T00:51:43.361Z,65.29
2019-04-27T00:54:15.378Z,65.41
2019-04-27T00:56:56.091Z,65.34
2019-04-27T00:59:55.917Z,65.57
2019-04-27T01:02:38.864Z,65.45
2019-04-27T01:05:17.854Z,65.30
2019-04-27T01:07:49.923Z,65.10
2019-04-27T01:10:23.350Z,65.07
2019-04-27T01:12:55.315Z,65.27
2019-04-27T01:15:28.525Z,65.64
2019-04-27T01:18:11.690Z,65.67
2019-04-27T01:20:34.832Z,65.59
2019-04-27T01:23:06.723Z,65.49
2019-04-27T01:25:56.802Z,65.69
2019-04-27T01:28:33.013Z,65.86
2019-04-27T01:31:09.227Z,65.83
2019-04-27T01:33:41.235Z,65.81
2019-04-27T01:36:13.088Z,66.10
2019-04-27T01:38:45.077Z,65.81
2019-04-27T01:41:19.026Z,65.68
2019-04-27T01:43:50.692Z,65.52
2019-04-27T01:46:23.761Z,65.65
2019-04-27T01:48:55.593Z,65.74
2019-04-27T01:51:29.325Z,65.66
2019-04-27T01:54:00.985Z,65.62
2019-04-27T01:56:32.869Z,65.90
2019-04-27T01:59:04.860Z,66.01
2019-04-27T02:02:13.517Z,66.13
2019-04-27T02:05:02.880Z,66.05
2019-04-27T02:07:35.527Z,65.80
2019-04-27T02:10:08.982Z,66.01
2019-04-27T02:12:51.130Z,65.83
2019-04-27T02:15:22.961Z,66.14
2019-04-27T02:17:55.750Z,66.42
2019-04-27T02:20:28.265Z,66.66
2019-04-27T02:23:01.126Z,66.94
2019-04-27T02:25:33.072Z,67.27
2019-04-27T02:28:12.850Z,67.22
2019-04-27T02:31:02.204Z,67.26
2019-04-27T02:33:43.571Z,67.29
2019-04-27T02:36:15.486Z,67.21
2019-04-27T02:38:49.183Z,67.12
2019-04-27T02:41:21.259Z,67.34
2019-04-27T02:44:16.387Z,66.99
2019-04-27T02:46:50.184Z,67.02
2019-04-27T02:49:21.767Z,66.67
2019-04-27T02:52:03.271Z,66.76
2019-04-27T02:54:36.153Z,66.72
2019-04-27T02:57:10.103Z,66.93
2019-04-27T02:59:41.615Z,67.04
2019-04-27T03:02:35.359Z,67.03
2019-04-27T03:05:12.791Z,66.78
2019-04-27T03:07:42.870Z,66.79
2019-04-27T03:10:14.914Z,66.81
2019-04-27T03:12:51.375Z,67.07
2019-04-27T03:15:34.298Z,67.07
2019-04-27T03:18:16.729Z,66.95
2019-04-27T03:21:00.192Z,66.62
2019-04-27T03:23:31.186Z,66.62
2019-04-27T03:26:21.911Z,66.32
2019-04-27T03:28:54.455Z,66.06
2019-04-27T03:31:26.249Z,65.88
2019-04-27T03:34:03.836Z,65.88
2019-04-27T03:36:32.026Z,65.93
2019-04-27T03:39:05.174Z,66.07
2019-04-27T03:41:37.325Z,66.28
2019-04-27T03:44:09.391Z,66.62
2019-04-27T03:46:42.398Z,66.62
2019-04-27T03:49:27.770Z,66.30
2019-04-27T03:52:03.098Z,66.18
2019-04-27T03:54:42.755Z,66.20
2019-04-27T03:57:23.619Z,66.20
2019-04-27T04:00:00.112Z,65.94
2019-04-27T04:02:32.126Z,65.98
2019-04-27T04:05:04.095Z,66.01
2019-04-27T04:07:35.952Z,65.83
2019-04-27T04:10:10.361Z,65.83
2019-04-27T04:12:49.866Z,65.96
2019-04-27T04:15:42.738Z,66.07
2019-04-27T04:18:14.600Z,66.06
2019-04-27T04:20:46.797Z,66.08
2019-04-27T04:23:20.375Z,66.00
2019-04-27T04:25:54.123Z,65.75
2019-04-27T04:28:25.986Z,65.97
2019-04-27T04:31:00.281Z,66.01
2019-04-27T04:33:31.386Z,65.53
2019-04-27T04:36:03.535Z,65.53
2019-04-27T04:38:35.394Z,65.69
2019-04-27T04:41:10.013Z,65.76
2019-04-27T04:44:00.769Z,65.69
2019-04-27T04:47:00.775Z,65.84
2019-04-27T04:49:32.644Z,65.97
2019-04-27T04:52:04.457Z,65.69
2019-04-27T04:54:36.309Z,65.85
2019-04-27T04:57:09.325Z,65.82
2019-04-27T04:59:43.884Z,65.99
2019-04-27T05:02:15.922Z,66.19
2019-04-27T05:04:49.184Z,66.39
2019-04-27T05:07:21.105Z,66.43
2019-04-27T05:09:52.899Z,66.26
2019-04-27T05:12:24.863Z,66.35
2019-04-27T05:14:58.941Z,66.15
2019-04-27T05:17:30.762Z,66.22
2019-04-27T05:20:05.328Z,66.16
2019-04-27T05:22:37.194Z,66.18
2019-04-27T05:25:09.333Z,66.27
2019-04-27T05:27:42.781Z,66.46
2019-04-27T05:30:14.641Z,66.51
2019-04-27T05:32:46.516Z,66.60
2019-04-27T05:35:19.426Z,66.48
2019-04-27T05:37:51.273Z,66.89
2019-04-27T05:40:23.045Z,67.39
2019-04-27T05:42:56.184Z,68.15
2019-04-27T05:46:39.897Z,68.85
2019-04-27T05:49:17.022Z,68.85
2019-04-27T05:51:50.118Z,68.97
2019-04-27T05:54:22.054Z,69.16
2019-04-27T05:56:53.917Z,69.48
2019-04-27T05:59:25.774Z,69.73
2019-04-27T06:01:59.267Z,69.57
2019-04-27T06:04:32.193Z,69.89
2019-04-27T06:07:04.043Z,70.64
2019-04-27T06:09:35.887Z,70.30
2019-04-27T06:12:08.977Z,70.30
2019-04-27T06:14:40.851Z,70.28
2019-04-27T06:17:12.630Z,70.88
2019-04-27T06:19:44.422Z,70.88
2019-04-27T06:22:16.314Z,70.67
2019-04-27T06:24:52.753Z,70.67
2019-04-27T06:27:21.724Z,71.33
2019-04-27T06:29:53.937Z,71.28
2019-04-27T06:32:25.807Z,71.48
2019-04-27T06:34:58.956Z,71.48
2019-04-27T06:37:31.039Z,71.50
2019-04-27T06:40:02.837Z,71.01
2019-04-27T06:42:34.720Z,71.01
2019-04-27T06:45:06.891Z,71.01
2019-04-27T06:47:39.708Z,70.93
2019-04-27T06:50:12.426Z,70.94
2019-04-27T06:52:44.293Z,71.25
2019-04-27T06:55:16.400Z,71.33
2019-04-27T06:57:49.075Z,70.68
2019-04-27T07:00:21.912Z,70.46
2019-04-27T07:02:55.304Z,69.66
2019-04-27T07:05:28.900Z,69.65
2019-04-27T07:08:00.896Z,69.17
2019-04-27T07:10:32.770Z,68.95
2019-04-27T07:13:04.628Z,68.38
2019-04-27T07:15:36.532Z,68.42
2019-04-27T07:18:09.700Z,68.70
2019-04-27T07:20:41.669Z,68.68
2019-04-27T07:23:13.580Z,68.86
2019-04-27T07:25:45.383Z,69.15
2019-04-27T07:28:19.042Z,69.46
2019-04-27T07:30:50.927Z,69.99
2019-04-27T07:33:22.794Z,70.03
2019-04-27T07:35:54.624Z,69.75
2019-04-27T07:38:26.490Z,69.61
2019-04-27T07:40:58.747Z,69.66
2019-04-27T07:43:54.487Z,69.66
2019-04-27T07:46:29.852Z,69.67
2019-04-27T07:48:59.973Z,70.23
2019-04-27T07:51:34.294Z,70.02
2019-04-27T07:54:05.844Z,69.62
2019-04-27T07:56:38.991Z,69.62
2019-04-27T07:59:10.922Z,69.58
2019-04-27T08:01:42.774Z,69.20
2019-04-27T08:04:14.637Z,69.23
2019-04-27T08:06:46.761Z,69.26
2019-04-27T08:09:19.083Z,69.25
2019-04-27T08:11:50.997Z,68.99
2019-04-27T08:14:23.007Z,68.76
2019-04-27T08:16:54.909Z,68.56
2019-04-27T08:19:26.796Z,68.53
2019-04-27T08:21:59.588Z,68.46
2019-04-27T08:24:33.163Z,68.39
2019-04-27T08:27:26.954Z,68.26
2019-04-27T08:30:23.581Z,67.83
2019-04-27T08:32:55.509Z,68.23
2019-04-27T08:35:29.464Z,68.10
2019-04-27T08:38:00.905Z,68.33
2019-04-27T08:40:32.777Z,67.83
2019-04-27T08:43:04.659Z,68.18
2019-04-27T08:45:36.517Z,67.69
2019-04-27T08:48:09.332Z,67.73
2019-04-27T08:50:42.122Z,67.30
2019-04-27T08:53:14.256Z,67.32
2019-04-27T08:55:46.393Z,67.36
2019-04-27T08:58:21.089Z,67.14
2019-04-27T09:00:52.285Z,67.55
2019-04-27T09:03:24.208Z,67.39
2019-04-27T09:05:56.110Z,67.46
2019-04-27T09:08:42.816Z,67.64
2019-04-27T09:11:39.680Z,67.51
2019-04-27T09:14:34.177Z,67.16
2019-04-27T09:17:19.909Z,67.30
2019-04-27T09:20:10.720Z,67.72
2019-04-27T09:22:42.666Z,67.47
2019-04-27T09:25:15.102Z,67.97
2019-04-27T09:27:49.269Z,67.95
2019-04-27T09:30:21.401Z,67.87
2019-04-27T09:32:53.284Z,67.93
2019-04-27T09:35:26.450Z,67.95
2019-04-27T09:37:59.345Z,67.90
2019-04-27T09:40:31.287Z,67.59
2019-04-27T09:43:05.023Z,67.31
2019-04-27T09:45:37.278Z,67.30
2019-04-27T09:48:09.458Z,66.50
2019-04-27T09:50:42.492Z,66.71
2019-04-27T09:53:17.150Z,66.91
2019-04-27T09:55:53.108Z,66.33
2019-04-27T09:58:25.936Z,66.33
2019-04-27T10:00:59.123Z,67.00
2019-04-27T10:03:31.094Z,66.74
2019-04-27T10:06:03.107Z,66.93
2019-04-27T10:08:36.666Z,66.76
2019-04-27T10:11:09.142Z,67.06
2019-04-27T10:13:41.157Z,67.35
2019-04-27T10:16:13.074Z,67.71
2019-04-27T10:18:45.868Z,67.59
2019-04-27T10:21:18.148Z,67.48
2019-04-27T10:23:50.791Z,67.50
2019-04-27T10:26:22.806Z,66.75
2019-04-27T10:28:56.108Z,66.52
2019-04-27T10:31:30.288Z,66.14
2019-04-27T10:34:05.894Z,65.59
2019-04-27T10:36:40.374Z,65.60
2019-04-27T10:39:14.109Z,65.30
2019-04-27T10:41:46.580Z,65.35
2019-04-27T10:44:19.464Z,65.48
2019-04-27T10:46:52.318Z,65.21
2019-04-27T10:49:24.512Z,64.62
2019-04-27T10:51:56.659Z,64.62
2019-04-27T10:54:29.103Z,64.70
2019-04-27T10:57:01.158Z,64.55
2019-04-27T10:59:35.907Z,64.27
2019-04-27T11:02:07.901Z,64.04
2019-04-27T11:04:53.026Z,63.59
2019-04-27T11:07:28.429Z,63.24
2019-04-27T11:10:00.447Z,63.01
2019-04-27T11:12:32.314Z,62.31
2019-04-27T11:15:09.611Z,62.31
2019-04-27T11:17:41.482Z,62.64
2019-04-27T11:20:13.657Z,61.68
2019-04-27T11:22:46.501Z,61.33
2019-04-27T11:25:18.455Z,62.27
2019-04-27T11:27:50.312Z,61.85
2019-04-27T11:30:22.375Z,61.85
2019-04-27T11:32:56.765Z,62.17
2019-04-27T11:35:39.293Z,62.45
2019-04-27T11:38:11.100Z,62.20
2019-04-27T11:40:42.903Z,62.39
2019-04-27T11:43:16.079Z,62.29
2019-04-27T11:45:48.459Z,62.67
2019-04-27T11:48:21.371Z,62.67
2019-04-27T11:50:55.929Z,61.94
2019-04-27T11:53:27.940Z,61.85
2019-04-27T11:55:59.832Z,61.44
2019-04-27T11:58:35.031Z,61.67
2019-04-27T12:01:08.476Z,61.67
2019-04-27T12:03:40.397Z,61.99
2019-04-27T12:06:12.290Z,61.99
2019-04-27T12:08:45.767Z,61.89
2019-04-27T12:11:18.173Z,61.89
2019-04-27T12:13:50.036Z,62.02
2019-04-27T12:16:22.075Z,61.67
2019-04-27T12:18:54.079Z,61.74
2019-04-27T12:21:25.965Z,61.72
2019-04-27T12:23:57.822Z,60.89
2019-04-27T12:26:55.789Z,60.83
2019-04-27T12:29:47.965Z,60.83
2019-04-27T12:32:19.954Z,60.42
2019-04-27T12:34:52.693Z,59.55
2019-04-27T12:37:26.691Z,60.29
2019-04-27T12:39:58.626Z,59.45
2019-04-27T12:42:31.489Z,58.48
2019-04-27T12:45:04.029Z,58.06
2019-04-27T12:47:36.572Z,58.04
2019-04-27T12:50:09.753Z,58.16
2019-04-27T12:52:43.311Z,58.16
2019-04-27T12:55:32.344Z,57.93
2019-04-27T12:58:26.627Z,57.07
2019-04-27T13:01:00.180Z,55.87
2019-04-27T13:03:32.212Z,55.69
2019-04-27T13:06:04.071Z,54.82
2019-04-27T13:08:35.941Z,55.68
2019-04-27T13:11:07.987Z,55.56
2019-04-27T13:13:39.846Z,55.93
2019-04-27T13:16:11.705Z,56.32
2019-04-27T13:18:43.991Z,55.94
2019-04-27T13:21:18.022Z,55.99
2019-04-27T13:24:01.251Z,54.71
2019-04-27T13:26:23.305Z,54.28
2019-04-27T13:28:56.120Z,54.13
2019-04-27T13:31:28.146Z,54.04
2019-04-27T13:34:02.639Z,54.06
2019-04-27T13:36:34.437Z,53.81
2019-04-27T13:39:08.466Z,53.94
2019-04-27T13:41:41.909Z,53.43
2019-04-27T13:44:16.024Z,53.52
2019-04-27T13:47:06.292Z,53.30
2019-04-27T13:50:00.165Z,52.44
2019-04-27T13:52:33.026Z,51.93
2019-04-27T13:55:05.863Z,52.30
2019-04-27T13:57:49.803Z,52.85
2019-04-27T14:00:12.833Z,52.81
2019-04-27T14:02:45.087Z,53.31
2019-04-27T14:05:16.952Z,54.26
2019-04-27T14:07:49.424Z,54.17
2019-04-27T14:10:21.515Z,54.22
2019-04-27T14:12:53.385Z,54.65
2019-04-27T14:15:25.174Z,53.92
2019-04-27T14:17:59.068Z,54.08
2019-04-27T14:20:32.247Z,54.46
2019-04-27T14:23:16.410Z,54.32
2019-04-27T14:25:48.483Z,54.14
2019-04-27T14:28:22.095Z,54.15
2019-04-27T14:30:53.903Z,54.13
2019-04-27T14:33:25.755Z,53.54
2019-04-27T14:35:59.389Z,54.16
2019-04-27T14:38:31.763Z,53.17
2019-04-27T14:41:04.080Z,53.14
2019-04-27T14:43:35.943Z,53.52
2019-04-27T14:46:08.233Z,53.32
2019-04-27T14:48:40.228Z,53.19
2019-04-27T14:51:12.031Z,52.74
2019-04-27T14:53:43.805Z,52.64
2019-04-27T14:56:18.093Z,52.00
2019-04-27T14:58:49.652Z,51.67
2019-04-27T15:01:22.111Z,51.31
2019-04-27T15:03:53.972Z,51.89
2019-04-27T15:06:25.867Z,51.45
2019-04-27T15:08:57.650Z,51.78
2019-04-27T15:11:31.539Z,52.18
2019-04-27T15:14:04.408Z,52.18
2019-04-27T15:16:37.799Z,51.97
2019-04-27T15:19:17.848Z,51.54
2019-04-27T15:21:57.788Z,51.72
2019-04-27T15:24:23.846Z,51.40
2019-04-27T15:27:00.802Z,52.16
2019-04-27T15:29:31.445Z,51.44
2019-04-27T15:32:10.948Z,50.60
2019-04-27T15:35:05.025Z,50.00
2019-04-27T15:37:44.664Z,49.89
2019-04-27T15:40:35.385Z,50.66
2019-04-27T15:43:15.492Z,50.48
2019-04-27T15:45:48.693Z,50.61
2019-04-27T15:48:25.010Z,50.67
2019-04-27T15:50:54.781Z,51.00
2019-04-27T15:53:28.342Z,50.60
2019-04-27T15:56:02.078Z,50.63
2019-04-27T15:58:34.036Z,49.29
2019-04-27T16:01:09.873Z,49.46
2019-04-27T16:03:40.794Z,49.44
2019-04-27T16:06:12.851Z,49.34
2019-04-27T16:08:46.807Z,49.90
2019-04-27T16:11:19.828Z,50.27
2019-04-27T16:13:52.062Z,49.71
2019-04-27T16:16:24.453Z,50.02
2019-04-27T16:18:59.344Z,49.10
2019-04-27T16:21:31.723Z,49.02
2019-04-27T16:24:03.681Z,49.07
2019-04-27T16:26:38.614Z,48.96
2019-04-27T16:29:10.689Z,48.72
2019-04-27T16:31:42.627Z,49.08
2019-04-27T16:34:15.135Z,48.58
2019-04-27T16:36:47.720Z,47.28
2019-04-27T16:39:20.386Z,46.14
2019-04-27T16:41:52.692Z,46.82
2019-04-27T16:44:24.573Z,47.01
2019-04-27T16:46:58.243Z,47.38
2019-04-27T16:49:30.218Z,47.73
2019-04-27T16:52:02.099Z,47.70
2019-04-27T16:54:35.127Z,48.71
2019-04-27T16:57:07.971Z,48.29
2019-04-27T16:59:45.732Z,49.29
2019-04-27T17:02:17.402Z,48.68
2019-04-27T17:04:52.841Z,48.94
2019-04-27T17:07:21.609Z,49.74
2019-04-27T17:09:53.697Z,49.87
2019-04-27T17:12:32.295Z,49.79
2019-04-27T17:15:16.667Z,50.20
2019-04-27T17:18:10.703Z,49.81
2019-04-27T17:20:43.405Z,50.01
2019-04-27T17:23:22.542Z,50.09
2019-04-27T17:25:52.916Z,49.95
2019-04-27T17:28:24.969Z,50.83
2019-04-27T17:30:58.273Z,51.52
2019-04-27T17:33:38.124Z,51.36
2019-04-27T17:36:12.093Z,51.64
2019-04-27T17:38:47.340Z,52.53
2019-04-27T17:41:19.605Z,52.56
2019-04-27T17:43:51.878Z,52.79
2019-04-27T17:46:23.698Z,53.74
2019-04-27T17:48:55.592Z,54.08
2019-04-27T17:51:30.692Z,53.93
2019-04-27T17:54:02.941Z,54.49
2019-04-27T17:56:38.254Z,54.35
2019-04-27T17:59:16.480Z,54.76
2019-04-27T18:01:43.201Z,55.30
2019-04-27T18:04:15.063Z,55.51
2019-04-27T18:06:48.360Z,56.27
2019-04-27T18:09:21.215Z,56.98
2019-04-27T18:11:54.439Z,57.71
2019-04-27T18:14:32.616Z,57.95
2019-04-27T18:17:03.677Z,58.05
2019-04-27T18:19:55.590Z,58.33
2019-04-27T18:22:32.162Z,58.74
2019-04-27T18:25:06.817Z,59.37
2019-04-27T18:27:52.779Z,59.45
2019-04-27T18:30:43.995Z,59.75
2019-04-27T18:33:18.438Z,60.84
2019-04-27T18:35:51.113Z,60.87
2019-04-27T18:38:23.752Z,60.91
2019-04-27T18:40:55.850Z,60.89
2019-04-27T18:43:29.623Z,61.16
2019-04-27T18:46:03.571Z,61.05
2019-04-27T18:48:55.987Z,61.08
2019-04-27T18:51:48.420Z,60.99
2019-04-27T18:54:21.801Z,61.32
2019-04-27T18:57:01.897Z,61.82
2019-04-27T18:59:28.824Z,61.56
2019-04-27T19:02:01.270Z,61.41
2019-04-27T19:04:33.514Z,61.38
2019-04-27T19:07:05.437Z,61.76
2019-04-27T19:09:37.518Z,62.28
2019-04-27T19:12:09.552Z,62.28
2019-04-27T19:14:41.932Z,63.06
2019-04-27T19:17:13.842Z,62.81
2019-04-27T19:19:47.305Z,62.49
2019-04-27T19:22:19.779Z,62.98
2019-04-27T19:24:51.859Z,62.98
2019-04-27T19:27:33.002Z,63.06
2019-04-27T19:30:19.449Z,62.77
2019-04-27T19:32:51.684Z,62.36
2019-04-27T19:35:23.715Z,62.57
2019-04-27T19:37:55.622Z,62.58
2019-04-27T19:40:29.026Z,62.88
2019-04-27T19:43:01.022Z,63.18
2019-04-27T19:45:33.098Z,63.36
2019-04-27T19:48:05.026Z,63.73
2019-04-27T19:50:36.951Z,63.81
2019-04-27T19:53:09.725Z,63.36
2019-04-27T19:55:49.807Z,63.68
2019-04-27T19:58:21.811Z,64.14
2019-04-27T20:01:11.470Z,63.86
2019-04-27T20:03:38.713Z,64.08
2019-04-27T20:06:12.197Z,64.08
2019-04-27T20:08:49.012Z,64.26
2019-04-27T20:11:24.173Z,64.36
2019-04-27T20:13:58.029Z,64.34
2019-04-27T20:16:31.924Z,64.09
2019-04-27T20:19:04.104Z,64.09
2019-04-27T20:21:36.078Z,64.48
2019-04-27T20:24:08.685Z,64.86
2019-04-27T20:26:40.583Z,64.59
2019-04-27T20:29:14.363Z,64.59
2019-04-27T20:31:46.819Z,64.62
2019-04-27T20:34:21.155Z,64.80
2019-04-27T20:36:52.954Z,64.94
2019-04-27T20:39:24.912Z,65.51
2019-04-27T20:41:56.987Z,65.56
2019-04-27T20:44:31.073Z,64.74
2019-04-27T20:47:02.751Z,64.70
2019-04-27T20:49:34.683Z,64.52
2019-04-27T20:52:12.916Z,65.03
2019-04-27T20:54:44.932Z,65.03
2019-04-27T20:57:16.845Z,64.71
2019-04-27T20:59:50.501Z,64.90
2019-04-27T21:02:42.086Z,65.02
2019-04-27T21:05:26.234Z,64.92
2019-04-27T21:08:01.933Z,65.23
2019-04-27T21:10:34.906Z,65.53
2019-04-27T21:13:07.837Z,66.04
2019-04-27T21:15:41.722Z,65.87
2019-04-27T21:18:13.368Z,65.84
2019-04-27T21:20:45.249Z,65.89
2019-04-27T21:23:17.124Z,66.29
2019-04-27T21:25:51.223Z,66.58
2019-04-27T21:28:22.601Z,66.76
2019-04-27T21:30:54.423Z,66.29
2019-04-27T21:33:26.310Z,66.27
2019-04-27T21:35:58.205Z,66.08
2019-04-27T21:38:30.110Z,66.31
2019-04-27T21:41:01.995Z,65.97
2019-04-27T21:43:33.903Z,66.02
2019-04-27T21:46:05.825Z,65.84
2019-04-27T21:48:37.718Z,65.49
2019-04-27T21:51:11.308Z,65.51
2019-04-27T21:54:03.528Z,65.56
2019-04-27T21:56:35.410Z,65.78
2019-04-27T21:59:11.103Z,65.97
2019-04-27T22:01:44.538Z,66.17
2019-04-27T22:04:16.619Z,65.93
2019-04-27T22:06:48.498Z,65.49
2019-04-27T22:09:20.661Z,65.80
2019-04-27T22:11:53.105Z,65.92
2019-04-27T22:14:24.998Z,66.19
2019-04-27T22:16:56.885Z,66.01
2019-04-27T22:19:28.700Z,65.96
2019-04-27T22:22:02.246Z,65.90
2019-04-27T22:24:37.468Z,65.55
2019-04-27T22:27:09.467Z,65.55
2019-04-27T22:29:41.370Z,65.57
2019-04-27T22:32:13.279Z,65.50
2019-04-27T22:34:45.165Z,66.05
2019-04-27T22:37:17.140Z,66.50
2019-04-27T22:40:12.003Z,66.21
2019-04-27T22:43:02.871Z,66.59
2019-04-27T22:45:35.553Z,66.69
2019-04-27T22:48:07.461Z,66.35
2019-04-27T22:50:41.296Z,66.19
2019-04-27T22:53:12.911Z,66.16
2019-04-27T22:56:02.117Z,66.68
2019-04-27T22:58:35.308Z,66.58
2019-04-27T23:01:16.630Z,66.73
2019-04-27T23:03:48.875Z,66.78
2019-04-27T23:06:22.381Z,66.57
2019-04-27T23:08:54.333Z,66.75
2019-04-27T23:11:26.342Z,67.14
2019-04-27T23:13:58.216Z,67.17
2019-04-27T23:16:31.740Z,67.17
2019-04-27T23:19:03.570Z,67.36
2019-04-27T23:21:35.543Z,67.40
2019-04-27T23:24:07.431Z,66.90
2019-04-27T23:26:39.320Z,66.62
2019-04-27T23:29:15.722Z,66.55
2019-04-27T23:32:06.774Z,66.58
2019-04-27T23:34:38.595Z,66.49
2019-04-27T23:37:10.469Z,66.54
2019-04-27T23:39:42.578Z,66.72
2019-04-27T23:42:14.676Z,66.35
2019-04-27T23:44:46.564Z,66.11
2019-04-27T23:47:18.436Z,65.97
2019-04-27T23:49:50.923Z,66.22
2019-04-27T23:52:28.385Z,66.31
2019-04-27T23:55:02.236Z,66.15
2019-04-27T23:57:33.784Z,66.80
